Latest Weather Observations for St Lawrence

IDQ60801

Issued at 7:05 am EST Tuesday 21 October 2014 (issued every 30 minutes, with the page automatically refreshed every 10 minutes)

About weather observations | Map of weather stations | Latest weather observations for QLD | Other Formats
Station Details ID: 033210 Name: ST LAWRENCE Lat: -22.35 Lon: 149.52 Height: 9.19 m
Data from the previous 72 hours. | See also: Recent months at St Lawrence
Date/Time
EST
Temp
°C
App
Temp
°C
Dew
Point
Rel
Hum
%
Delta-T
°C
Wind Press
QNH
hPa
Press
MSL
hPa
Rain
since 9 am
mm
Dir
 
Spd
km/h
Gust
km/h
Spd
kts
Gust
kts
21/07:00am 18.9 17.3 14.0 73 2.8 S 15 20 8 11 1023.1 1023.1 0.0
21/06:30am 17.8 16.6 13.9 78 2.2 S 13 17 7 9 1022.8 1022.8 0.0
21/06:00am 16.4 15.4 13.3 82 1.7 S 11 15 6 8 1022.4 1022.4 0.0
21/05:30am 15.4 14.6 12.9 85 1.4 S 9 13 5 7 1022.2 1022.2 0.0
21/05:00am 15.5 14.7 12.8 84 1.5 S 9 11 5 6 1021.9 1021.9 0.0
21/04:30am 16.3 15.7 13.4 83 1.6 S 9 13 5 7 1021.4 1021.4 0.0
21/04:00am 15.9 15.2 13.2 84 1.5 S 9 11 5 6 1021.1 1021.1 0.0
21/03:30am 16.0 15.3 13.3 84 1.5 S 9 13 5 7 1020.9 1020.9 0.0
21/03:00am 16.1 15.4 13.2 83 1.6 S 9 13 5 7 1021.1 1021.1 0.0
21/02:30am 16.4 15.4 13.3 82 1.7 S 11 15 6 8 1021.1 1021.1 0.0
21/02:00am 16.5 15.6 13.6 83 1.6 S 11 15 6 8 1021.3 1021.3 0.0
21/01:30am 16.5 15.9 13.6 83 1.6 S 9 15 5 8 1021.6 1021.6 0.0
21/01:00am 17.0 16.5 13.9 82 1.8 S 9 13 5 7 1021.9 1021.9 0.0
21/12:30am 17.2 17.1 13.9 81 1.9 S 7 11 4 6 1022.3 1022.3 0.0
21/12:00am 17.6 17.6 13.7 78 2.2 SE 6 7 3 4 1022.4 1022.4 0.0
 
Date/Time
EST
Temp
°C
App
Temp
°C
Dew
Point
Rel
Hum
%
Delta-T
°C
Wind Press
QNH
hPa
Press
MSL
hPa
Rain
since 9 am
mm
Dir
 
Spd
km/h
Gust
km/h
Spd
kts
Gust
kts
20/11:30pm 18.2 18.2 14.3 78 2.2 SE 7 9 4 5 1022.6 1022.6 0.0
20/11:00pm 18.7 18.8 13.8 73 2.8 SE 6 7 3 4 1023.0 1023.0 0.0
20/10:30pm 19.7 20.0 14.5 72 3.0 ESE 6 9 3 5 1023.2 1023.2 0.0
20/10:00pm 20.3 20.0 14.4 69 3.4 E 9 11 5 6 1023.3 1023.3 0.0
20/09:30pm 20.7 20.8 14.4 67 3.7 E 7 11 4 6 1023.4 1023.4 0.0
20/09:00pm 21.2 21.0 14.6 66 3.9 ENE 9 13 5 7 1023.2 1023.2 0.0
20/08:30pm 21.3 21.1 14.7 66 3.9 E 9 19 5 10 1022.6 1022.6 0.0
20/08:00pm 21.8 20.9 14.9 65 4.1 ENE 13 24 7 13 1021.9 1021.9 0.0
20/07:30pm 22.2 21.3 14.8 63 4.4 ENE 13 20 7 11 1021.5 1021.5 0.0
20/07:00pm 22.7 21.7 14.5 60 4.8 NE 13 20 7 11 1020.9 1020.9 0.0
20/06:30pm 23.3 22.1 14.0 56 5.4 ENE 13 19 7 10 1020.5 1020.5 0.0
20/06:00pm 23.6 22.7 15.9 62 4.6 NNE 15 20 8 11 1020.1 1020.1 0.0
20/05:30pm 24.4 22.6 15.6 58 5.3 NE 19 26 10 14 1019.6 1019.6 0.0
20/05:00pm 24.9 23.0 15.8 57 5.5 NNE 20 30 11 16 1019.3 1019.3 0.0
20/04:30pm 25.9 23.8 15.3 52 6.4 NNE 20 28 11 15 1018.9 1018.9 0.0
20/04:00pm 25.9 23.2 14.7 50 6.7 NNE 22 32 12 17 1018.7 1018.7 0.0
20/03:30pm 27.1 25.1 15.5 49 7.1 NNE 20 28 11 15 1018.6 1018.6 0.0
20/03:00pm 26.2 24.0 15.0 50 6.7 NNE 20 32 11 17 1018.5 1018.5 0.0
20/02:30pm 27.3 25.0 14.7 46 7.6 NNE 20 32 11 17 1018.7 1018.7 0.0
20/02:00pm 27.9 24.9 12.7 39 8.9 NNE 20 32 11 17 1018.8 1018.8 0.0
20/01:30pm 28.3 24.3 11.8 36 9.5 NNE 24 35 13 19 1019.2 1019.2 0.0
20/01:00pm 28.0 24.9 13.5 41 8.6 NNE 22 32 12 17 1019.8 1019.8 0.0
20/12:30pm 28.8 26.6 12.2 35 9.7 ENE 15 24 8 13 1020.4 1020.4 0.0
20/12:00pm 27.7 24.6 10.4 34 9.7 ENE 17 30 9 16 1021.1 1021.1 0.0
20/11:30am 27.8 24.9 10.9 35 9.6 E 17 30 9 16 1021.8 1021.8 0.0
20/11:00am 27.5 25.3 10.7 35 9.5 E 13 20 7 11 1022.2 1022.2 0.0
20/10:30am 26.6 22.9 10.3 36 9.1 ENE 20 26 11 14 1022.8 1022.8 0.0
20/10:00am 25.7 23.5 12.2 43 7.7 E 15 24 8 13 1023.2 1023.2 0.0
20/09:30am 25.3 23.4 12.9 46 7.2 SE 15 26 8 14 1023.5 1023.5 0.0
20/09:00am 23.8 22.0 13.4 52 6.0 SE 15 26 8 14 1023.8 1023.8 0.0
20/08:30am 22.8 21.0 13.3 55 5.5 SSE 15 22 8 12 1024.1 1024.1 0.0
20/08:00am 21.9 20.1 13.3 58 4.9 S 15 24 8 13 1024.2 1024.2 0.0
20/07:30am 20.8 19.3 13.0 61 4.4 S 13 19 7 10 1024.2 1024.2 0.0
20/07:00am 18.9 17.3 12.9 68 3.4 S 13 19 7 10 1023.9 1023.9 0.0
20/06:30am 17.0 15.3 12.3 74 2.6 S 13 17 7 9 1023.6 1023.6 0.0
20/06:00am 15.3 13.8 11.9 80 1.8 S 11 13 6 7 1023.2 1023.2 0.0
20/05:30am 15.2 14.1 11.8 80 1.8 S 9 13 5 7 1022.9 1022.9 0.0
20/05:00am 15.5 14.1 12.1 80 1.8 S 11 13 6 7 1022.5 1022.5 0.0
20/04:30am 15.1 13.9 11.7 80 1.8 S 9 11 5 6 1022.1 1022.1 0.0
20/04:00am 15.9 14.5 12.3 79 2.0 S 11 13 6 7 1021.8 1021.8 0.0
20/03:30am 15.5 14.4 11.9 79 2.0 S 9 11 5 6 1021.7 1021.7 0.0
20/03:00am 15.7 14.6 11.9 78 2.1 S 9 11 5 6 1021.7 1021.7 0.0
20/02:30am 15.9 15.2 11.9 77 2.2 S 7 9 4 5 1021.7 1021.7 0.0
20/02:00am 16.3 15.2 11.9 75 2.4 S 9 11 5 6 1022.0 1022.0 0.0
20/01:30am 16.4 15.3 12.0 75 2.4 S 9 11 5 6 1022.3 1022.3 0.0
20/01:00am 16.3 15.8 11.9 75 2.4 S 6 9 3 5 1022.6 1022.6 0.0
20/12:30am 16.5 15.9 11.6 73 2.7 S 6 7 3 4 1022.8 1022.8 0.0
20/12:00am 17.3 16.5 11.6 69 3.1 S 7 7 4 4 1023.2 1023.2 0.0
 
Date/Time
EST
Temp
°C
App
Temp
°C
Dew
Point
Rel
Hum
%
Delta-T
°C
Wind Press
QNH
hPa
Press
MSL
hPa
Rain
since 9 am
mm
Dir
 
Spd
km/h
Gust
km/h
Spd
kts
Gust
kts
19/11:30pm 17.6 16.8 11.8 69 3.2 S 7 9 4 5 1023.5 1023.5 0.0
19/11:00pm 18.0 17.2 11.8 67 3.4 S 7 9 4 5 1023.8 1023.8 0.0
19/10:30pm 19.1 18.6 11.9 63 4.0 S 6 9 3 5 1023.9 1023.9 0.0
19/10:00pm 20.6 19.2 12.3 59 4.6 ESE 11 17 6 9 1024.0 1024.0 0.0
19/09:30pm 21.1 19.0 12.5 58 4.9 E 15 20 8 11 1023.7 1023.7 0.0
19/09:00pm 21.4 18.7 11.7 54 5.4 E 17 26 9 14 1023.6 1023.6 0.0
19/08:30pm 21.5 20.8 13.2 59 4.8 ESE 9 17 5 9 1023.3 1023.3 0.0
19/08:00pm 21.9 20.5 13.5 59 4.8 E 13 24 7 13 1022.8 1022.8 0.0
19/07:30pm 22.1 20.6 14.2 61 4.6 E 15 30 8 16 1022.4 1022.4 0.0
19/07:00pm 22.5 21.1 14.4 60 4.7 E 15 28 8 15 1022.1 1022.1 0.0
19/06:30pm 22.9 21.5 14.5 59 5.0 ENE 15 24 8 13 1021.7 1021.7 0.0
19/06:00pm 23.6 21.9 14.6 57 5.3 ENE 17 26 9 14 1021.4 1021.4 0.0
19/05:30pm 24.7 22.4 14.2 52 6.2 ENE 19 33 10 18 1021.1 1021.1 0.0
19/05:00pm 25.5 22.5 13.7 48 6.9 ENE 22 32 12 17 1020.7 1020.7 0.0
19/04:30pm 25.9 23.3 13.7 47 7.2 ENE 20 32 11 17 1020.5 1020.5 0.0
19/04:00pm 26.9 24.0 14.0 45 7.7 ENE 22 32 12 17 1020.2 1020.2 0.0
19/03:30pm 26.4 23.4 12.5 42 8.1 ENE 20 33 11 18 1020.1 1020.1 0.0
19/03:00pm 27.4 24.7 13.4 42 8.2 ENE 20 32 11 17 1020.2 1020.2 0.0
19/02:30pm 26.8 24.2 13.2 43 8.0 ENE 19 28 10 15 1020.3 1020.3 0.0
19/02:00pm 27.3 24.0 12.9 41 8.4 ENE 22 33 12 18 1020.4 1020.4 0.0
19/01:30pm 27.6 24.3 11.6 37 9.2 E 20 32 11 17 1020.8 1020.8 0.0
19/01:00pm 26.7 24.2 12.4 41 8.3 E 17 26 9 14 1021.1 1021.1 0.0
19/12:30pm 28.0 24.9 10.2 33 10.0 ENE 17 26 9 14 1021.3 1021.3 0.0
19/12:00pm 27.1 24.3 11.2 37 9.0 ENE 17 39 9 21 1021.6 1021.6 0.0
19/11:30am 27.5 24.4 11.5 37 9.2 ENE 19 30 10 16 1022.1 1022.1 0.0
19/11:00am 26.8 24.8 12.8 42 8.1 E 15 28 8 15 1022.7 1022.7 0.0
19/10:30am 26.3 23.7 13.1 44 7.7 ESE 19 30 10 16 1023.2 1023.2 0.0
19/10:00am 25.8 22.6 13.0 45 7.4 ESE 22 32 12 17 1023.5 1023.5 0.0
19/09:30am 24.6 21.5 13.5 50 6.5 ESE 22 32 12 17 1023.7 1023.7 0.0
19/09:00am 25.1 21.7 13.6 49 6.7 ESE 24 35 13 19 1023.8 1023.8 0.0
19/08:30am 23.6 22.4 14.0 55 5.6 SE 13 22 7 12 1023.8 1023.8 0.0
19/08:00am 22.8 21.7 14.4 59 4.9 SSE 13 19 7 10 1024.0 1024.0 0.0
19/07:30am 21.5 20.5 14.6 65 4.1 S 13 19 7 10 1023.8 1023.8 0.0
19/07:00am 20.0 19.0 14.6 71 3.1 S 13 19 7 10 1023.6 1023.6 0.0
19/06:30am 18.0 17.4 14.7 81 1.9 S 11 15 6 8 1023.3 1023.3 0.0
19/06:00am 16.4 15.9 13.7 84 1.5 S 9 11 5 6 1023.0 1023.0 0.0
19/05:30am 16.2 15.6 13.5 84 1.5 S 9 9 5 5 1022.8 1022.8 0.0
19/05:00am 16.3 16.0 13.4 83 1.6 S 7 11 4 6 1022.6 1022.6 0.0
19/04:30am 16.7 16.6 13.8 83 1.6 S 7 9 4 5 1022.4 1022.4 0.0
19/04:00am 17.1 16.6 13.8 81 1.9 S 9 11 5 6 1022.2 1022.2 0.0
19/03:30am 17.2 17.2 14.1 82 1.8 S 7 9 4 5 1022.0 1022.0 0.0
19/03:00am 17.4 17.2 13.7 79 2.1 S 7 9 4 5 1022.0 1022.0 0.0
19/02:30am 17.8 17.8 13.7 77 2.3 S 6 9 3 5 1022.1 1022.1 0.0
19/02:00am 18.1 18.0 14.0 77 2.3 S 7 9 4 5 1022.1 1022.1 0.0
19/01:30am 18.1 18.0 14.0 77 2.3 S 7 9 4 5 1022.3 1022.3 0.0
19/01:00am 18.2 18.2 13.7 75 2.6 S 6 7 3 4 1022.5 1022.5 0.0
19/12:30am 18.3 18.2 13.4 73 2.8 S 6 9 3 5 1022.8 1022.8 0.0
19/12:00am 18.8 18.5 13.4 71 3.1 S 7 11 4 6 1023.0 1023.0 0.0
 
Date/Time
EST
Temp
°C
App
Temp
°C
Dew
Point
Rel
Hum
%
Delta-T
°C
Wind Press
QNH
hPa
Press
MSL
hPa
Rain
since 9 am
mm
Dir
 
Spd
km/h
Gust
km/h
Spd
kts
Gust
kts
18/11:30pm 18.7 18.9 12.9 69 3.3 SSE 4 7 2 4 1023.2 1023.2 0.0
18/11:00pm 20.1 20.1 13.6 66 3.7 SE 6 9 3 5 1023.4 1023.4 0.0
18/10:30pm 21.1 20.8 14.3 65 4.0 ESE 9 13 5 7 1023.7 1023.7 0.0
18/10:00pm 21.0 20.9 13.9 64 4.1 ESE 7 11 4 6 1023.7 1023.7 0.0
18/09:30pm 21.4 20.9 13.8 62 4.4 E 9 15 5 8 1023.5 1023.5 0.0
18/09:00pm 21.5 21.2 13.4 60 4.6 E 7 11 4 6 1023.3 1023.3 0.0
18/08:30pm 21.8 21.7 13.9 61 4.6 ESE 7 13 4 7 1023.0 1023.0 0.0
18/08:00pm 22.5 22.1 14.1 59 4.9 E 9 15 5 8 1022.5 1022.5 0.0
18/07:30pm 22.8 21.5 13.8 57 5.2 E 13 24 7 13 1022.0 1022.0 0.0
18/07:00pm 23.2 22.0 13.9 56 5.4 E 13 22 7 12 1021.5 1021.5 0.0
18/06:30pm 23.6 21.7 14.3 56 5.5 E 17 28 9 15 1021.0 1021.0 0.0
18/06:00pm 24.2 22.1 14.6 55 5.7 ENE 19 32 10 17 1020.4 1020.4 0.0
18/05:30pm 25.0 23.3 14.8 53 6.1 ENE 17 28 9 15 1019.9 1019.9 0.0
18/05:00pm 25.7 23.5 14.5 50 6.7 ENE 19 30 10 16 1019.2 1019.2 0.0
18/04:30pm 26.3 23.2 14.4 48 7.1 NE 24 37 13 20 1018.8 1018.8 0.0
18/04:00pm 26.4 23.8 13.9 46 7.4 NNE 20 30 11 16 1018.5 1018.5 0.0
18/03:30pm 26.6 23.5 12.3 41 8.3 NNE 20 30 11 16 1018.7 1018.7 0.0
18/03:00pm 27.9 23.8 11.5 36 9.4 NE 24 35 13 19 1018.8 1018.8 0.0
18/02:30pm 26.6 23.7 12.3 41 8.3 NNE 19 30 10 16 1019.0 1019.0 0.0
18/02:00pm 26.9 23.8 12.2 40 8.5 NNE 20 33 11 18 1019.3 1019.3 0.0
18/01:30pm 27.1 24.1 12.7 41 8.4 NNE 20 30 11 16 1019.6 1019.6 0.0
18/01:00pm 27.8 23.7 10.1 33 9.9 NE 22 33 12 18 1019.9 1019.9 0.0
18/12:30pm 28.2 23.4 9.0 30 10.6 NNE 24 33 13 18 1020.2 1020.2 0.0
18/12:00pm 27.8 23.2 9.6 32 10.1 NNE 24 35 13 19 1020.6 1020.6 0.0
18/11:30am 28.3 25.3 12.6 38 9.2 NNE 20 28 11 15 1021.0 1021.0 0.0
18/11:00am 27.0 24.5 11.1 37 9.0 ENE 15 26 8 14 1021.6 1021.6 0.0
18/10:30am 28.0 25.4 10.7 34 9.8 E 15 28 8 15 1021.9 1021.9 0.0
18/10:00am 27.1 23.7 11.2 37 9.0 ENE 20 22 11 12 1022.1 1022.1 0.0
18/09:30am 26.6 25.8 14.0 46 7.5 E 11 22 6 12 1022.4 1022.4 0.0
18/09:00am 25.5 24.8 15.5 54 6.0 ESE 13 20 7 11 1022.3 1022.3 0.0
18/08:30am 23.9 23.3 15.7 60 5.0 SE 13 24 7 13 1022.3 1022.3 0.0
18/08:00am 22.8 23.1 16.1 66 4.0 SSE 9 15 5 8 1022.1 1022.1 0.0
18/07:30am 21.2 21.2 16.2 73 3.0 S 11 15 6 8 1021.8 1021.8 0.0

Other Formats:

Comma delimited format used in spreadsheet applications
http://www.bom.gov.au/fwo/IDQ60801/IDQ60801.95369.axf

JavaScript Object Notation format (JSON) in row-major order
http://www.bom.gov.au/fwo/IDQ60801/IDQ60801.95369.json